Terminal Aerodrome Forecast
Issued by NWS

Home | Current Version | Previous Version | Text Only | Print | Product List | Glossary On
Versions: 1 2 3 4 5 6 7 8 9 10 11 12 13 14 15 16 17 18 19
000
FTUS42 KMLB 311120
TAFSFB
TAF
KSFB 311120Z 3112/0112 19005KT P6SM FEW025 SCT150 BKN250
     FM311400 22009KT P6SM SCT025 SCT120 BKN250
     FM311800 23011KT P6SM VCTS SCT040CB BKN120 BKN250
      TEMPO 3119/3121 3SM TSRA BKN035CB
     FM010000 21006KT P6SM VCSH FEW025 BKN150 BKN250=

USA.gov is the U.S. government's official web portal to all federal, state and local government web resources and services.